Flight Track Log - Related Links

Times and Time Zones

All times are in EST time to prevent confusion due to time zone crossing. See the N199ML flight status page for this flight to view local times or setup timezone preferences in your user account.

Time Position Orientation Groundspeed Altitude Reporting Facility
EST Latitude Longitude Course Direction KTS MPH feet Rate Location/Type
Fri 06:43:52 PM 35.1019 -106.5539 331° Northwest 239 275 10,000  Level Albuquerque Center
Fri 06:45:03 PM 35.1711 -106.6014 21° North 266 306 12,900 2,244 Climbing Albuquerque Center
Fri 06:46:03 PM 35.2314 -106.5731 42° Northeast 216 249 14,900 2,000 Climbing Albuquerque Center
Fri 06:47:03 PM 35.2853 -106.5139 21° North 224 258 16,900 1,900 Climbing Albuquerque Center
Fri 06:48:03 PM 35.3475 -106.4853 15° North 237 273 18,700 1,850 Climbing Albuquerque Center
Fri 06:49:03 PM 35.4058 -106.4667 14° North 237 273 20,600 2,050 Climbing Albuquerque Center
Fri 06:50:03 PM 35.4747 -106.4456 16° North 237 273 22,800 1,800 Climbing Albuquerque Center
Fri 06:51:03 PM 35.5433 -106.4217 14° North 243 280 24,200 1,400 Climbing Albuquerque Center
Fri 06:52:03 PM 35.6119 -106.4006 15° North 248 285 25,600 1,450 Climbing Albuquerque Center
Fri 06:53:03 PM 35.6786 -106.3792 15° North 261 300 27,100 1,550 Climbing Albuquerque Center
Fri 06:54:03 PM 35.7575 -106.3528 16° North 261 300 28,700 1,500 Climbing Albuquerque Center
Fri 06:55:03 PM 35.8264 -106.3289 16° North 261 300 30,100 1,300 Climbing Albuquerque Center
Fri 06:56:03 PM 35.8969 -106.3047 16° North 261 300 31,300 1,050 Climbing Albuquerque Center
Fri 06:57:03 PM 35.9739 -106.2781 12° North 267 307 32,200 850 Climbing Albuquerque Center
Fri 06:58:03 PM 36.0531 -106.2564 16° North 274 315 33,000 800 Climbing Albuquerque Center
Fri 06:59:03 PM 36.1281 -106.2297 16° North 279 321 33,800 800 Climbing Albuquerque Center
Fri 07:00:03 PM 36.1944 -106.2056 14° North 279 321 34,600 411 Climbing Albuquerque Center
Fri 07:01:58 PM 36.3500 -106.1561 13° North 303 349 35,000 137 Climbing Denver Center
Fri 07:02:58 PM 36.4353 -106.1325 North 303 349 35,000  Level Denver Center
Fri 07:03:58 PM 36.5206 -106.1192 10° North 303 349 35,000  Level Denver Center
Fri 07:04:58 PM 36.6081 -106.1008 11° North 309 356 35,000  Level Denver Center
Fri 07:05:58 PM 36.6956 -106.0797 10° North 314 361 35,000  Level Denver Center
Fri 07:06:58 PM 36.7892 -106.0583 10° North 304 350 35,000  Level Denver Center
Fri 07:07:58 PM 36.8703 -106.0397 11° North 299 344 35,000  Level Denver Center
Fri 07:08:58 PM 36.9475 -106.0214 North 304 350 35,000 -300 Level Denver Center
Fri 07:09:58 PM 37.0347 -106.0053 10° North 314 361 34,400 -500 Descending Denver Center
Fri 07:10:58 PM 37.1286 -105.9836 10° North 314 361 34,000 -200 Descending Denver Center
Fri 07:11:58 PM 37.2119 -105.9650 10° North 314 361 34,000  Level Denver Center
Fri 07:12:58 PM 37.2992 -105.9461 10° North 309 356 34,000  Level Denver Center
Fri 07:13:58 PM 37.3742 -105.9297 North 309 356 34,000 -200 Level Denver Center
Fri 07:14:58 PM 37.4681 -105.9108 North 309 356 33,600 -500 Descending Denver Center
Fri 07:15:58 PM 37.5575 -105.8944 11° North 309 356 33,000 -300 Descending Denver Center
Fri 07:16:58 PM 37.6344 -105.8756 10° North 322 371 33,000 -350 Level Denver Center
Fri 07:17:58 PM 37.7239 -105.8564 North 316 364 32,300 -500 Descending Denver Center
Fri 07:18:58 PM 37.8219 -105.8372 10° North 316 364 32,000 -150 Descending Denver Center
Fri 07:19:58 PM 37.9072 -105.8181 10° North 316 364 32,000  Level Denver Center
Fri 07:20:58 PM 37.9842 -105.8017 10° North 316 364 32,000  Level Denver Center
Fri 07:21:58 PM 38.0717 -105.7822 10° North 310 357 32,000  Level Denver Center
Fri 07:22:58 PM 38.1694 -105.7603 10° North 318 366 32,000  Level Denver Center
Fri 07:23:58 PM 38.2528 -105.7408 North 313 360 32,000 -350 Level Denver Center
Fri 07:24:58 PM 38.3319 -105.7242 13° North 319 367 31,300 -850 Descending Denver Center
Fri 07:25:58 PM 38.4278 -105.6967 10° North 313 360 30,300 -1,000 Descending Denver Center
Fri 07:26:58 PM 38.5150 -105.6772 10° North 313 360 29,300 -1,000 Descending Denver Center
Fri 07:27:58 PM 38.6006 -105.6575 North 313 360 28,300 -1,000 Descending Denver Center
Fri 07:28:58 PM 38.6878 -105.6406 North 313 360 27,300 -950 Descending Denver Center
Fri 07:29:58 PM 38.7733 -105.6236 North 313 360 26,400 -1,150 Descending Denver Center
Fri 07:30:58 PM 38.8689 -105.6039 10° North 323 372 25,000 -1,300 Descending Denver Center
Fri 07:31:58 PM 38.9544 -105.5842 11° North 316 364 23,800 -1,200 Descending Denver Center
Fri 07:32:58 PM 39.0356 -105.5644 North 301 346 22,600 -1,350 Descending Denver Center
Fri 07:33:58 PM 39.1064 -105.5500 12° North 289 333 21,100 -1,550 Descending Denver Center
Fri 07:34:58 PM 39.1875 -105.5275 10° North 294 338 19,500 -1,700 Descending Denver Center
Fri 07:35:58 PM 39.2664 -105.5103 10° North 294 338 17,700 -1,850 Descending Denver Center
Fri 07:36:58 PM 39.3436 -105.4933 26° Northeast 289 333 15,800 -1,300 Descending Denver Center
Fri 07:37:58 PM 39.4181 -105.4464 53° Northeast 277 319 15,100 -400 Descending Denver Center
Fri 07:38:58 PM 39.4694 -105.3569 54° Northeast 278 320 15,000 -400 Descending Denver Center
Fri 07:39:58 PM 39.5186 -105.2700 23° Northeast 301 346 14,300 -750 Descending Denver Center
Fri 07:40:58 PM 39.5850 -105.2339 North 268 308 13,500 -1,200 Descending Denver Center
Fri 07:41:58 PM 39.6600 -105.2217 70° East 253 291 11,900 -1,700 Descending Denver Center
Fri 07:42:58 PM 39.6839 -105.1350 60° Northeast 218 251 10,100 -1,450 Descending Denver Center
Fri 07:43:58 PM 39.7144 -105.0669 North 218 251 9,000 -1,050 Descending Denver Center
Fri 07:44:58 PM 39.7686 -105.0631 North 191 220 8,000 -950 Descending Denver Center
Fri 07:45:58 PM 39.8247 -105.0619 344° North 199 229 7,100 -671 Descending Denver Center
Fri 07:47:48 PM 39.8833 -105.0833 344° North 121 139 6,100 -545 Descending Denver TRACON

Login

Don't have an account? Register now (free) for customized features, flight alerts, and more!